Time;durP1;ratioP1;P1;durP2;ratioP2;P2;SDS_P1;SDS_P2;PMS_P1;PMS_P2;Temp;Humidity;BMP_temperature;BMP_pressure;BME280_temperature;BME280_humidity;BME280_pressure;Samples;Min_cycle;Max_cycle;Signal;HPM_P1;HPM_P2
2023/01/23 00:01:41;;;;;;;8.38;2.70;;;3.50;91.20;;;;;;5027003;28;20025;-66
2023/01/23 00:04:07;;;;;;;5.75;2.28;;;3.50;91.10;;;;;;5028362;28;20032;-66
2023/01/23 00:06:32;;;;;;;3.67;1.80;;;3.40;91.10;;;;;;5028844;28;20045;-65
2023/01/23 00:08:58;;;;;;;3.63;1.80;;;3.50;91.20;;;;;;5028729;28;20025;-65
2023/01/23 00:11:26;;;;;;;3.90;2.08;;;3.50;91.20;;;;;;5028860;28;20030;-65
2023/01/23 00:13:52;;;;;;;3.53;1.92;;;3.40;91.10;;;;;;5028719;28;20037;-66
2023/01/23 00:16:20;;;;;;;5.72;2.83;;;3.40;91.20;;;;;;5028407;28;20041;-65
2023/01/23 00:18:47;;;;;;;5.15;2.70;;;3.40;91.20;;;;;;5026374;28;20037;-67
2023/01/23 00:21:15;;;;;;;4.20;2.25;;;3.40;91.30;;;;;;5028462;28;20045;-65
2023/01/23 00:23:43;;;;;;;3.47;1.73;;;3.40;91.30;;;;;;5028082;28;20427;-65
2023/01/23 00:26:14;;;;;;;3.38;1.80;;;3.30;91.20;;;;;;5031645;28;20388;-66
2023/01/23 00:28:41;;;;;;;4.80;2.30;;;3.40;91.30;;;;;;5032484;28;20033;-65
2023/01/23 00:31:11;;;;;;;6.03;2.70;;;3.40;91.30;;;;;;5032614;28;20523;-67
2023/01/23 00:33:37;;;;;;;4.18;2.42;;;3.40;91.30;;;;;;5031953;28;20480;-65
2023/01/23 00:36:03;;;;;;;2.83;1.77;;;3.40;91.30;;;;;;5031106;28;20044;-65
2023/01/23 00:38:29;;;;;;;2.33;1.60;;;3.30;91.30;;;;;;5032468;28;20038;-66
2023/01/23 00:40:55;;;;;;;3.47;1.77;;;3.40;91.30;;;;;;5032135;28;20026;-66
2023/01/23 00:43:22;;;;;;;4.50;2.08;;;3.40;91.30;;;;;;5032338;28;20026;-67
2023/01/23 00:45:48;;;;;;;5.53;2.67;;;3.40;91.30;;;;;;5030781;28;20435;-66
2023/01/23 00:48:13;;;;;;;2.38;1.67;;;3.40;91.40;;;;;;5032301;28;20026;-66
2023/01/23 00:50:39;;;;;;;4.47;1.88;;;3.30;91.30;;;;;;5032116;28;20037;-67
2023/01/23 00:53:05;;;;;;;3.20;1.70;;;3.40;91.40;;;;;;5030789;28;20075;-65
2023/01/23 00:55:30;;;;;;;3.08;1.80;;;3.30;91.30;;;;;;5031821;28;20079;-65
2023/01/23 00:57:56;;;;;;;3.78;1.73;;;3.30;91.40;;;;;;5032129;28;20057;-66
2023/01/23 01:00:21;;;;;;;1.98;1.10;;;3.40;91.50;;;;;;5032239;28;20022;-65
2023/01/23 01:02:47;;;;;;;1.45;1.35;;;3.40;91.40;;;;;;5032385;28;20100;-65
2023/01/23 01:05:12;;;;;;;2.55;1.45;;;3.50;91.50;;;;;;5032125;28;20108;-65
2023/01/23 01:07:38;;;;;;;4.80;2.17;;;3.50;91.40;;;;;;5031679;28;20022;-66
2023/01/23 01:10:04;;;;;;;4.35;2.22;;;3.50;91.40;;;;;;5031798;28;20490;-65
2023/01/23 01:12:30;;;;;;;2.65;1.48;;;3.50;91.40;;;;;;5031982;28;20656;-65
2023/01/23 01:14:55;;;;;;;2.90;1.55;;;3.50;91.40;;;;;;5031818;28;20033;-65
2023/01/23 01:17:21;;;;;;;1.88;1.52;;;3.50;91.50;;;;;;5031795;28;20096;-65
2023/01/23 01:19:47;;;;;;;5.65;2.17;;;3.50;91.50;;;;;;5031611;28;20037;-66
2023/01/23 01:22:12;;;;;;;3.20;1.92;;;3.50;91.30;;;;;;5031342;28;20259;-66
2023/01/23 01:24:40;;;;;;;6.28;2.47;;;3.50;91.40;;;;;;5031515;28;20105;-65
2023/01/23 01:27:06;;;;;;;5.20;2.40;;;3.50;91.30;;;;;;5031716;28;20029;-65
2023/01/23 01:29:32;;;;;;;3.55;2.03;;;3.40;91.40;;;;;;5031129;28;20033;-66
2023/01/23 01:31:58;;;;;;;3.10;1.88;;;3.40;91.50;;;;;;5031234;28;20040;-66
2023/01/23 01:34:24;;;;;;;3.53;2.28;;;3.40;91.60;;;;;;5031064;28;20100;-65
2023/01/23 01:36:50;;;;;;;5.38;2.10;;;3.40;91.60;;;;;;5031089;28;20032;-66
2023/01/23 01:39:16;;;;;;;3.38;1.83;;;3.50;91.60;;;;;;5031093;28;20027;-66
2023/01/23 01:41:42;;;;;;;3.72;2.20;;;3.50;91.60;;;;;;5030632;28;20112;-66
2023/01/23 01:44:21;;;;;;;1.65;1.35;;;3.50;91.60;;;;;;5031014;28;20088;-67
2023/01/23 01:46:48;;;;;;;2.85;1.70;;;3.50;91.50;;;;;;5030134;28;20488;-66
2023/01/23 01:49:23;;;;;;;3.58;1.80;;;3.50;91.50;;;;;;5031064;28;20079;-66
2023/01/23 01:52:01;;;;;;;3.22;1.70;;;3.50;91.50;;;;;;5030566;28;20036;-67
2023/01/23 01:54:35;;;;;;;2.70;1.60;;;3.60;91.60;;;;;;5030799;28;20039;-65
2023/01/23 01:57:24;;;;;;;4.80;1.90;;;3.60;91.50;;;;;;5030524;28;20026;-65
2023/01/23 02:00:15;;;;;;;3.92;1.95;;;3.60;91.40;;;;;;5011874;28;20075;-67
2023/01/23 02:02:52;;;;;;;4.70;1.80;;;3.60;91.50;;;;;;5028472;28;20084;-66
2023/01/23 02:05:23;;;;;;;3.47;1.98;;;3.50;91.70;;;;;;5030529;28;20047;-66
2023/01/23 02:08:16;;;;;;;5.50;3.05;;;3.50;91.50;;;;;;5030875;28;20165;-67
2023/01/23 02:10:43;;;;;;;4.53;2.63;;;3.50;91.50;;;;;;5030495;28;20033;-67
2023/01/23 02:13:29;;;;;;;4.85;2.28;;;3.50;91.50;;;;;;5030046;28;20037;-65
2023/01/23 02:15:57;;;;;;;5.28;2.25;;;3.50;91.50;;;;;;5030424;28;20033;-66
2023/01/23 02:18:23;;;;;;;2.20;1.40;;;3.50;91.60;;;;;;5030367;28;20025;-67
2023/01/23 02:20:51;;;;;;;1.98;1.35;;;3.50;91.60;;;;;;5030456;28;20030;-66
2023/01/23 02:23:36;;;;;;;3.85;1.27;;;3.50;91.60;;;;;;5030567;28;20022;-66
2023/01/23 02:26:11;;;;;;;1.77;1.35;;;3.60;91.60;;;;;;5030261;28;20021;-66
2023/01/23 02:28:45;;;;;;;2.33;1.58;;;3.50;91.60;;;;;;5028614;28;20021;-67
2023/01/23 02:31:12;;;;;;;2.83;1.80;;;3.60;91.60;;;;;;5018799;28;20032;-66
2023/01/23 02:33:38;;;;;;;2.13;1.38;;;3.60;91.60;;;;;;5030321;28;20056;-66
2023/01/23 02:36:04;;;;;;;2.50;1.25;;;3.60;91.60;;;;;;5028637;28;20030;-66
2023/01/23 02:38:35;;;;;;;1.90;1.40;;;3.70;91.60;;;;;;5028772;28;20036;-66
2023/01/23 02:41:04;;;;;;;1.80;1.33;;;3.70;91.60;;;;;;5029942;28;20033;-66
2023/01/23 02:43:34;;;;;;;2.90;1.33;;;3.80;91.50;;;;;;5029761;28;20032;-66
2023/01/23 02:46:04;;;;;;;1.95;1.38;;;3.80;91.50;;;;;;5029846;28;20486;-65
2023/01/23 02:48:30;;;;;;;1.20;1.10;;;3.80;91.40;;;;;;5029549;28;20033;-66
2023/01/23 02:50:56;;;;;;;1.75;1.17;;;3.80;91.70;;;;;;5029428;28;20504;-66
2023/01/23 02:53:21;;;;;;;1.45;1.23;;;3.80;91.40;;;;;;5030140;28;20021;-66
2023/01/23 02:55:47;;;;;;;2.38;1.30;;;3.80;91.40;;;;;;5029432;28;20395;-66
2023/01/23 03:00:56;;;;;;;4.03;1.80;;;3.80;91.40;;;;;;5030047;28;20038;-65
2023/01/23 03:03:22;;;;;;;3.97;1.70;;;3.80;91.50;;;;;;5029628;28;20396;-65
2023/01/23 03:05:49;;;;;;;2.42;1.08;;;3.80;91.60;;;;;;5029328;28;20021;-65
2023/01/23 03:08:14;;;;;;;2.20;1.50;;;3.80;91.60;;;;;;5029572;28;20025;-65
2023/01/23 03:10:40;;;;;;;2.63;1.13;;;3.80;91.50;;;;;;5030153;28;20388;-67
2023/01/23 03:13:06;;;;;;;6.18;1.73;;;3.80;91.50;;;;;;5029504;28;20021;-67
2023/01/23 03:15:37;;;;;;;1.52;1.13;;;3.90;91.50;;;;;;5029848;28;20041;-65
2023/01/23 03:18:03;;;;;;;2.28;1.20;;;3.90;91.50;;;;;;5027892;28;20298;-66
2023/01/23 03:20:29;;;;;;;3.35;1.52;;;3.90;91.50;;;;;;5029694;28;20030;-66
2023/01/23 03:22:56;;;;;;;1.33;1.13;;;3.90;91.50;;;;;;5029138;28;20081;-66
2023/01/23 03:25:21;;;;;;;1.88;1.20;;;3.80;91.40;;;;;;5009976;28;20120;-66
2023/01/23 03:27:47;;;;;;;1.33;1.20;;;3.90;91.50;;;;;;5023969;28;20108;-66
2023/01/23 03:30:15;;;;;;;2.90;1.90;;;3.80;91.50;;;;;;5029165;28;20041;-66
2023/01/23 03:32:44;;;;;;;1.52;1.20;;;3.90;91.50;;;;;;5029172;28;20131;-65
2023/01/23 03:35:13;;;;;;;2.40;1.75;;;3.90;91.50;;;;;;5029265;28;20032;-65
2023/01/23 03:37:39;;;;;;;2.60;1.77;;;3.90;91.50;;;;;;5027648;28;20018;-66
2023/01/23 03:42:49;;;;;;;3.40;2.00;;;3.90;91.40;;;;;;5028150;28;20041;-67
2023/01/23 03:45:14;;;;;;;2.70;1.40;;;3.90;91.40;;;;;;5028061;28;20037;-65
2023/01/23 03:47:40;;;;;;;3.70;1.92;;;3.90;91.40;;;;;;5029061;28;20018;-66
2023/01/23 03:50:06;;;;;;;2.85;1.65;;;3.90;91.40;;;;;;5028784;28;20029;-66
2023/01/23 03:52:32;;;;;;;2.38;1.60;;;3.90;91.40;;;;;;5028814;28;20113;-67
2023/01/23 03:54:57;;;;;;;3.63;1.40;;;3.90;91.50;;;;;;5029077;28;20532;-68
2023/01/23 03:57:23;;;;;;;2.55;1.85;;;3.90;91.40;;;;;;5028604;28;20108;-67
2023/01/23 03:59:48;;;;;;;1.88;1.45;;;3.90;91.40;;;;;;5027498;28;20024;-66
2023/01/23 04:02:14;;;;;;;4.00;1.70;;;3.90;91.40;;;;;;5028631;28;20029;-68
2023/01/23 04:04:40;;;;;;;2.22;1.40;;;3.90;91.40;;;;;;5028874;28;20031;-64
2023/01/23 04:07:05;;;;;;;4.50;1.60;;;3.90;91.40;;;;;;5028776;28;20026;-66
2023/01/23 04:09:31;;;;;;;4.70;1.60;;;3.80;91.40;;;;;;5028789;28;20041;-65
2023/01/23 04:11:58;;;;;;;2.47;1.52;;;3.80;91.50;;;;;;5028413;28;20029;-66
2023/01/23 04:14:25;;;;;;;3.35;1.88;;;3.80;91.50;;;;;;5028831;28;20078;-66
2023/01/23 04:16:52;;;;;;;3.38;1.67;;;3.80;91.50;;;;;;5027721;28;20033;-66
2023/01/23 04:19:18;;;;;;;1.70;1.27;;;3.80;91.50;;;;;;5028292;28;20075;-66
2023/01/23 04:21:45;;;;;;;3.40;1.85;;;3.90;91.60;;;;;;5028869;28;20033;-66
2023/01/23 04:24:10;;;;;;;1.98;1.30;;;3.90;91.50;;;;;;5028310;28;20522;-65
2023/01/23 04:26:36;;;;;;;3.25;2.10;;;3.90;91.50;;;;;;5028224;28;20034;-66
2023/01/23 04:29:02;;;;;;;3.78;2.05;;;3.80;91.50;;;;;;5027870;28;20025;-66
2023/01/23 04:31:28;;;;;;;4.90;1.45;;;3.80;91.50;;;;;;5028421;28;20021;-67
2023/01/23 04:33:53;;;;;;;3.50;1.90;;;3.80;91.50;;;;;;5029090;28;20045;-66
2023/01/23 04:36:19;;;;;;;2.67;1.70;;;3.80;91.50;;;;;;5028242;28;20030;-66
2023/01/23 04:38:44;;;;;;;1.63;1.25;;;3.80;91.50;;;;;;5028653;28;20033;-66
2023/01/23 04:41:18;;;;;;;3.53;1.60;;;3.90;91.60;;;;;;5028112;28;20029;-66
2023/01/23 04:43:43;;;;;;;1.75;1.10;;;3.90;91.60;;;;;;5028716;28;20022;-64
2023/01/23 04:46:09;;;;;;;3.25;1.98;;;3.90;91.60;;;;;;5028050;28;20036;-65
2023/01/23 04:48:34;;;;;;;1.75;1.10;;;3.90;91.50;;;;;;5028088;28;20029;-66
2023/01/23 04:51:00;;;;;;;2.20;1.45;;;3.90;91.50;;;;;;5028648;28;20044;-66
2023/01/23 04:53:25;;;;;;;1.27;1.10;;;3.90;91.50;;;;;;5028516;28;20106;-67
2023/01/23 04:55:51;;;;;;;3.45;1.58;;;4.00;91.50;;;;;;5028415;28;20061;-66
2023/01/23 04:58:18;;;;;;;1.98;1.08;;;3.90;91.50;;;;;;5028263;28;20066;-66
2023/01/23 05:00:44;;;;;;;1.73;1.30;;;3.90;91.50;;;;;;5028112;28;20032;-66
2023/01/23 05:03:10;;;;;;;1.38;1.02;;;3.90;91.60;;;;;;5028626;28;20080;-65
2023/01/23 05:05:35;;;;;;;1.42;1.30;;;3.90;91.50;;;;;;5028621;28;20053;-66
2023/01/23 05:08:01;;;;;;;2.42;1.30;;;4.00;91.60;;;;;;5028464;28;20080;-65
2023/01/23 05:10:26;;;;;;;3.20;1.80;;;3.90;91.60;;;;;;5028244;28;20033;-64
2023/01/23 05:12:52;;;;;;;1.80;1.42;;;4.00;91.60;;;;;;5030788;28;20033;-66
2023/01/23 05:15:20;;;;;;;2.60;1.50;;;4.00;91.60;;;;;;5030618;28;20064;-65
2023/01/23 05:17:46;;;;;;;5.28;1.60;;;3.90;91.50;;;;;;5032275;28;20724;-65
2023/01/23 05:20:12;;;;;;;2.67;1.33;;;3.90;91.60;;;;;;5032119;28;20025;-65
2023/01/23 05:22:50;;;;;;;4.10;1.30;;;3.90;91.60;;;;;;5031436;28;20097;-65
2023/01/23 05:25:20;;;;;;;1.60;1.17;;;4.00;91.60;;;;;;5031947;28;20017;-66
2023/01/23 05:27:46;;;;;;;3.47;1.83;;;4.00;91.60;;;;;;5031592;28;20142;-66
2023/01/23 05:30:12;;;;;;;1.30;1.20;;;4.00;91.60;;;;;;5031773;28;20556;-65
2023/01/23 05:32:37;;;;;;;2.67;1.48;;;4.00;91.50;;;;;;5030703;28;20025;-65
2023/01/23 05:35:03;;;;;;;2.70;1.52;;;4.00;91.50;;;;;;5031787;28;20053;-67
2023/01/23 05:37:28;;;;;;;3.65;1.73;;;4.00;91.50;;;;;;5028400;28;20064;-66
2023/01/23 05:39:54;;;;;;;1.90;1.33;;;4.00;91.40;;;;;;5026104;28;20021;-66
2023/01/23 05:42:20;;;;;;;2.67;1.55;;;4.10;91.50;;;;;;5026833;28;20025;-65
2023/01/23 05:44:45;;;;;;;5.35;2.22;;;4.10;91.50;;;;;;5039442;28;20021;-65
2023/01/23 05:47:11;;;;;;;2.40;1.40;;;4.10;91.50;;;;;;5040337;28;20030;-65
2023/01/23 05:49:36;;;;;;;3.30;1.67;;;4.10;91.40;;;;;;5046236;28;20078;-66
2023/01/23 05:52:02;;;;;;;2.17;1.23;;;4.10;91.40;;;;;;5036002;28;20083;-66
2023/01/23 05:54:27;;;;;;;5.68;1.70;;;4.10;91.50;;;;;;5031051;28;20113;-66
2023/01/23 05:56:53;;;;;;;2.22;1.50;;;4.10;91.40;;;;;;5030470;28;20033;-65
2023/01/23 05:59:19;;;;;;;2.35;1.48;;;4.00;91.40;;;;;;5028432;28;20431;-66
2023/01/23 06:01:44;;;;;;;2.88;1.80;;;4.00;91.40;;;;;;5031160;28;20419;-65
2023/01/23 06:04:11;;;;;;;3.33;1.95;;;4.00;91.40;;;;;;5030406;28;20061;-67
2023/01/23 06:06:37;;;;;;;9.82;2.90;;;4.00;91.50;;;;;;5029824;28;20021;-67
2023/01/23 06:09:03;;;;;;;5.07;2.63;;;3.90;91.50;;;;;;5029910;28;20036;-66
2023/01/23 06:11:28;;;;;;;6.05;2.15;;;3.90;91.80;;;;;;5015383;28;20030;-67
2023/01/23 06:13:54;;;;;;;2.72;1.77;;;3.90;91.60;;;;;;5025471;28;20523;-66
2023/01/23 06:16:19;;;;;;;3.20;1.58;;;3.90;91.60;;;;;;5019620;28;20411;-66
2023/01/23 06:18:45;;;;;;;6.03;1.85;;;3.90;91.60;;;;;;5030252;28;20511;-67
2023/01/23 06:21:10;;;;;;;5.18;2.17;;;3.90;91.60;;;;;;5030369;28;20432;-65
2023/01/23 06:23:36;;;;;;;5.00;3.05;;;3.80;91.60;;;;;;5029288;28;20096;-67
2023/01/23 06:26:02;;;;;;;3.75;1.95;;;3.80;91.70;;;;;;5030306;28;20025;-67
2023/01/23 06:28:28;;;;;;;8.18;3.00;;;3.80;91.70;;;;;;5029370;28;20025;-67
2023/01/23 06:30:54;;;;;;;3.00;2.05;;;3.70;91.80;;;;;;5033265;28;20802;-67
2023/01/23 06:33:19;;;;;;;2.67;1.52;;;3.70;92.00;;;;;;5031119;28;20056;-67
2023/01/23 06:35:45;;;;;;;5.00;1.80;;;3.70;92.00;;;;;;5030012;28;20407;-66
2023/01/23 06:38:10;;;;;;;5.57;2.45;;;3.70;92.10;;;;;;5025201;28;20030;-66
2023/01/23 06:40:36;;;;;;;4.75;2.53;;;3.70;92.10;;;;;;5027909;28;20112;-66
2023/01/23 06:43:01;;;;;;;4.45;2.58;;;3.70;92.10;;;;;;5030394;28;20056;-67
2023/01/23 06:45:27;;;;;;;4.28;2.22;;;3.70;92.10;;;;;;5027167;28;20681;-66
2023/01/23 06:47:52;;;;;;;3.35;2.00;;;3.80;92.10;;;;;;5027728;28;20099;-66
2023/01/23 06:50:18;;;;;;;6.63;2.53;;;3.80;92.00;;;;;;5027647;28;20025;-67
2023/01/23 06:52:43;;;;;;;3.13;1.90;;;3.80;92.00;;;;;;5032434;28;20037;-66
2023/01/23 06:55:10;;;;;;;4.15;2.35;;;3.80;92.00;;;;;;5041338;28;20021;-67
2023/01/23 06:57:35;;;;;;;3.92;1.98;;;3.80;91.90;;;;;;5039785;28;20140;-66
2023/01/23 07:00:01;;;;;;;4.72;2.97;;;3.80;92.00;;;;;;5029212;28;20057;-67
2023/01/23 07:02:27;;;;;;;2.67;1.80;;;3.90;92.00;;;;;;5028442;28;20116;-67
2023/01/23 07:04:52;;;;;;;4.20;2.45;;;3.90;92.00;;;;;;5027298;28;20025;-66
2023/01/23 07:07:18;;;;;;;3.63;1.63;;;3.90;91.90;;;;;;5039241;28;20079;-65
2023/01/23 07:09:43;;;;;;;3.10;1.75;;;3.90;91.90;;;;;;5028465;28;20141;-65
2023/01/23 07:12:09;;;;;;;2.85;1.83;;;4.00;91.90;;;;;;5030810;28;20057;-67
2023/01/23 07:14:35;;;;;;;3.10;1.67;;;4.00;91.80;;;;;;5027684;28;20059;-67
2023/01/23 07:17:00;;;;;;;7.25;2.35;;;4.00;91.80;;;;;;5028464;28;20649;-66
2023/01/23 07:19:26;;;;;;;3.65;2.03;;;4.00;91.70;;;;;;5028582;28;20032;-67
2023/01/23 07:21:52;;;;;;;3.30;1.63;;;4.00;91.80;;;;;;5029062;28;20567;-66
2023/01/23 07:24:18;;;;;;;2.20;1.50;;;4.00;91.90;;;;;;5028782;28;20128;-66
2023/01/23 07:26:44;;;;;;;1.30;1.20;;;4.00;91.80;;;;;;5029026;28;20095;-67
2023/01/23 07:29:09;;;;;;;5.40;2.67;;;4.00;91.80;;;;;;5027623;28;20055;-66
2023/01/23 07:31:35;;;;;;;5.75;2.20;;;3.90;91.80;;;;;;5030849;28;20030;-65
2023/01/23 07:34:01;;;;;;;5.00;2.33;;;3.90;91.90;;;;;;5028785;28;20029;-68
2023/01/23 07:36:28;;;;;;;4.00;1.90;;;3.90;91.90;;;;;;5029102;28;20029;-67
2023/01/23 07:38:55;;;;;;;2.95;1.73;;;3.90;91.90;;;;;;5028816;28;20061;-66
2023/01/23 07:41:21;;;;;;;3.20;1.88;;;4.00;91.90;;;;;;5028721;28;20031;-67
2023/01/23 07:43:46;;;;;;;2.58;1.67;;;4.00;91.90;;;;;;5027554;28;20022;-66
2023/01/23 07:46:12;;;;;;;4.45;2.08;;;4.00;91.90;;;;;;5027191;28;20543;-66
2023/01/23 07:48:38;;;;;;;4.93;2.40;;;4.00;91.90;;;;;;5031498;28;20068;-66
2023/01/23 07:51:04;;;;;;;2.13;1.35;;;4.00;91.90;;;;;;5028392;28;20022;-66
2023/01/23 07:53:30;;;;;;;5.20;2.17;;;4.00;91.90;;;;;;5026404;28;20026;-66
2023/01/23 07:55:56;;;;;;;4.22;1.73;;;4.10;91.90;;;;;;5028142;28;20048;-66
2023/01/23 07:58:22;;;;;;;3.70;1.95;;;4.10;91.80;;;;;;5026939;28;20535;-66
2023/01/23 08:00:47;;;;;;;2.20;1.67;;;4.10;91.80;;;;;;5027598;28;20025;-66
2023/01/23 08:03:13;;;;;;;3.72;2.00;;;4.00;91.70;;;;;;5025850;28;20029;-66
2023/01/23 08:05:39;;;;;;;6.50;2.20;;;4.00;91.90;;;;;;5024723;28;20029;-68
2023/01/23 08:08:05;;;;;;;3.25;1.70;;;3.90;91.90;;;;;;5025992;28;20025;-68
2023/01/23 08:10:30;;;;;;;3.17;2.28;;;4.00;92.00;;;;;;5027370;28;20057;-66
2023/01/23 08:12:56;;;;;;;1.65;1.45;;;4.00;92.00;;;;;;5026904;28;20021;-68
2023/01/23 08:15:21;;;;;;;3.45;1.58;;;4.00;91.90;;;;;;5026600;28;20021;-67
2023/01/23 08:17:47;;;;;;;2.95;1.55;;;4.10;91.90;;;;;;5029701;28;20060;-65
2023/01/23 08:20:13;;;;;;;2.60;1.88;;;4.10;91.90;;;;;;5028913;28;20029;-65
2023/01/23 08:22:39;;;;;;;7.80;2.55;;;4.10;91.90;;;;;;5031132;28;20021;-65
2023/01/23 08:25:07;;;;;;;3.60;1.65;;;4.20;91.80;;;;;;5031448;28;20025;-67
2023/01/23 08:27:33;;;;;;;2.10;1.20;;;4.20;91.80;;;;;;5028412;28;20022;-66
2023/01/23 08:29:58;;;;;;;2.38;1.95;;;4.20;91.80;;;;;;5020802;28;20029;-67
2023/01/23 08:32:24;;;;;;;2.65;1.67;;;4.30;91.70;;;;;;5038717;28;20028;-67
2023/01/23 08:34:50;;;;;;;4.00;2.20;;;4.30;91.70;;;;;;5025640;28;20377;-67
2023/01/23 08:37:15;;;;;;;3.70;2.70;;;4.20;91.60;;;;;;5031873;28;20052;-65
2023/01/23 08:39:41;;;;;;;4.80;2.55;;;4.20;91.70;;;;;;5024836;28;20361;-67
2023/01/23 08:42:07;;;;;;;2.60;1.50;;;4.20;91.80;;;;;;5034582;28;20488;-66
2023/01/23 08:44:33;;;;;;;3.47;1.85;;;4.20;91.80;;;;;;5028576;28;20029;-67
2023/01/23 08:47:01;;;;;;;7.38;3.08;;;4.30;91.70;;;;;;5034037;28;20059;-67
2023/01/23 08:49:26;;;;;;;6.22;2.88;;;4.10;91.70;;;;;;5030908;28;20022;-66
2023/01/23 08:51:52;;;;;;;5.07;2.35;;;4.10;91.80;;;;;;5032552;28;20496;-68
2023/01/23 08:54:18;;;;;;;5.63;2.13;;;4.10;91.90;;;;;;5028102;28;20030;-67
2023/01/23 08:56:43;;;;;;;3.83;2.20;;;4.20;91.90;;;;;;5035600;28;20045;-65
2023/01/23 08:59:09;;;;;;;4.18;1.80;;;4.30;91.80;;;;;;5031822;28;20021;-65
2023/01/23 09:01:34;;;;;;;2.97;1.75;;;4.30;91.80;;;;;;5032606;28;20075;-67
2023/01/23 09:04:00;;;;;;;2.97;1.70;;;4.30;91.70;;;;;;5027207;28;20018;-66
2023/01/23 09:06:25;;;;;;;2.78;1.80;;;4.30;91.70;;;;;;5031223;28;20029;-65
2023/01/23 09:08:51;;;;;;;5.95;2.38;;;4.30;91.70;;;;;;5030566;28;20096;-67
2023/01/23 09:11:17;;;;;;;2.95;2.03;;;4.30;91.70;;;;;;5031581;28;20371;-67
2023/01/23 09:13:44;;;;;;;7.72;3.15;;;4.30;91.80;;;;;;5029199;28;20037;-68
2023/01/23 09:16:10;;;;;;;3.85;2.20;;;4.30;91.80;;;;;;5029257;28;20076;-66
2023/01/23 09:18:36;;;;;;;5.80;2.50;;;4.30;91.90;;;;;;5029382;28;20051;-67
2023/01/23 09:21:10;;;;;;;4.38;2.38;;;4.30;91.80;;;;;;5030974;28;20129;-67
2023/01/23 09:23:36;;;;;;;4.15;2.38;;;4.40;92.20;;;;;;5030828;28;20018;-67
2023/01/23 09:26:07;;;;;;;4.53;2.20;;;4.40;91.80;;;;;;5030992;28;20101;-66
2023/01/23 09:28:35;;;;;;;2.73;1.53;;;4.50;91.90;;;;;;5029464;28;20412;-66
2023/01/23 09:31:08;;;;;;;3.67;1.90;;;4.50;91.80;;;;;;5034318;28;20033;-67
2023/01/23 09:33:34;;;;;;;7.65;3.45;;;4.50;91.80;;;;;;5026237;28;20392;-66
2023/01/23 09:36:00;;;;;;;5.57;2.47;;;4.30;91.70;;;;;;5032859;28;20029;-67
2023/01/23 09:38:26;;;;;;;5.50;2.50;;;4.40;91.90;;;;;;5031243;28;20128;-66
2023/01/23 09:40:55;;;;;;;4.40;2.30;;;4.50;91.90;;;;;;5032981;28;20031;-66
2023/01/23 09:43:30;;;;;;;3.75;1.90;;;4.50;91.80;;;;;;5035203;28;20067;-65
2023/01/23 09:46:04;;;;;;;5.90;2.97;;;4.50;91.80;;;;;;5042260;28;20060;-65
2023/01/23 09:48:41;;;;;;;3.95;1.83;;;4.60;91.70;;;;;;5038131;28;20021;-67
2023/01/23 09:51:20;;;;;;;5.07;2.50;;;4.60;91.70;;;;;;5035560;28;20026;-66
2023/01/23 09:53:46;;;;;;;5.60;3.00;;;4.60;91.60;;;;;;5041352;28;20064;-65
2023/01/23 09:56:26;;;;;;;6.78;2.72;;;4.70;91.60;;;;;;5032481;28;20045;-67
2023/01/23 09:59:12;;;;;;;2.92;2.05;;;4.70;91.50;;;;;;5026628;28;20071;-67
2023/01/23 10:01:38;;;;;;;4.18;2.33;;;4.70;91.50;;;;;;5029489;28;20484;-66
2023/01/23 10:04:04;;;;;;;6.72;2.35;;;4.80;91.50;;;;;;5031992;28;20039;-66
2023/01/23 10:06:50;;;;;;;7.22;3.83;;;4.70;91.40;;;;;;5028751;28;20021;-66
2023/01/23 10:09:15;;;;;;;6.05;2.65;;;4.60;91.40;;;;;;5030218;28;20602;-67
2023/01/23 10:12:09;;;;;;;5.35;2.75;;;4.60;91.60;;;;;;5028711;28;20079;-67
2023/01/23 10:14:34;;;;;;;6.40;3.42;;;4.60;91.60;;;;;;5030683;28;20084;-64
2023/01/23 10:17:23;;;;;;;9.60;4.63;;;4.50;91.60;;;;;;5034705;28;20754;-65
2023/01/23 10:19:51;;;;;;;6.28;3.08;;;4.50;91.80;;;;;;5027673;28;20033;-66
2023/01/23 10:22:20;;;;;;;7.07;3.63;;;4.50;92.00;;;;;;5026510;28;20034;-64
2023/01/23 10:24:52;;;;;;;3.85;2.30;;;4.50;91.90;;;;;;5032991;28;20033;-66
2023/01/23 10:27:22;;;;;;;5.47;3.15;;;4.50;91.90;;;;;;5031196;28;20057;-66
2023/01/23 10:30:01;;;;;;;7.65;3.10;;;4.50;91.90;;;;;;5030296;28;20100;-65
2023/01/23 10:32:29;;;;;;;8.40;3.35;;;4.50;91.90;;;;;;5029087;28;20065;-67
2023/01/23 10:35:11;;;;;;;7.70;3.13;;;4.50;92.00;;;;;;5027958;28;20426;-65
2023/01/23 10:37:41;;;;;;;4.40;2.28;;;4.60;92.00;;;;;;5031372;28;20044;-66
2023/01/23 10:40:13;;;;;;;8.32;3.10;;;4.70;92.00;;;;;;5026036;28;20029;-65
2023/01/23 10:42:39;;;;;;;3.92;2.22;;;4.70;91.80;;;;;;5032130;28;20057;-66
2023/01/23 10:45:08;;;;;;;4.60;2.88;;;4.80;91.80;;;;;;5029647;28;20029;-66
2023/01/23 10:47:47;;;;;;;6.97;3.38;;;4.80;91.80;;;;;;5037668;28;20078;-66
2023/01/23 10:50:14;;;;;;;8.20;3.38;;;4.90;91.80;;;;;;5026000;28;20045;-65
2023/01/23 10:52:44;;;;;;;10.60;4.75;;;4.80;91.70;;;;;;5027636;28;20104;-67
2023/01/23 10:55:18;;;;;;;8.20;3.83;;;4.80;91.50;;;;;;5030965;28;20037;-66
2023/01/23 10:57:47;;;;;;;9.57;4.32;;;4.80;91.70;;;;;;5028937;28;20422;-66
2023/01/23 11:00:36;;;;;;;9.68;4.53;;;4.70;91.60;;;;;;5026884;28;20029;-66
2023/01/23 11:03:29;;;;;;;11.32;4.18;;;4.80;91.80;;;;;;5033906;28;20080;-66
2023/01/23 11:06:07;;;;;;;13.68;4.78;;;4.80;91.60;;;;;;5035150;28;20596;-67
2023/01/23 11:08:35;;;;;;;7.18;3.40;;;4.70;91.60;;;;;;5029847;28;20610;-66
2023/01/23 11:11:24;;;;;;;7.43;3.70;;;4.80;91.70;;;;;;5027979;28;20033;-67
2023/01/23 11:14:06;;;;;;;11.38;4.30;;;4.90;91.60;;;;;;5029435;28;20083;-66
2023/01/23 11:16:32;;;;;;;7.00;3.17;;;4.90;91.50;;;;;;5010765;28;20100;-65
2023/01/23 11:19:14;;;;;;;7.68;3.38;;;4.90;91.50;;;;;;5030130;28;20029;-66
2023/01/23 11:21:53;;;;;;;4.35;2.45;;;4.90;91.50;;;;;;5025662;28;20044;-65
2023/01/23 11:24:29;;;;;;;5.20;2.60;;;5.10;91.60;;;;;;5033887;28;20428;-66
2023/01/23 11:27:04;;;;;;;5.38;2.47;;;5.10;91.40;;;;;;5046545;28;20099;-65
2023/01/23 11:29:49;;;;;;;5.38;3.10;;;5.10;91.40;;;;;;5028422;28;20108;-65
2023/01/23 11:32:16;;;;;;;6.00;2.63;;;5.10;91.30;;;;;;5027651;28;20029;-66
2023/01/23 11:35:02;;;;;;;4.20;2.30;;;5.20;91.40;;;;;;5023655;28;20105;-67
2023/01/23 11:37:35;;;;;;;4.75;2.22;;;5.30;91.30;;;;;;5031840;28;20040;-66
2023/01/23 11:40:01;;;;;;;4.40;2.22;;;5.20;91.20;;;;;;5026244;28;20025;-66
2023/01/23 11:42:27;;;;;;;3.88;2.00;;;5.30;91.30;;;;;;5029447;28;20029;-67
2023/01/23 11:44:54;;;;;;;4.28;2.50;;;5.40;91.20;;;;;;5028907;28;20101;-65
2023/01/23 11:47:47;;;;;;;2.67;1.50;;;5.40;91.20;;;;;;5027683;28;20037;-65
2023/01/23 11:50:48;;;;;;;3.92;1.88;;;5.50;91.10;;;;;;5022245;28;20040;-64
2023/01/23 11:53:42;;;;;;;4.20;1.88;;;5.40;91.00;;;;;;5027008;28;20447;-66
2023/01/23 11:56:32;;;;;;;3.38;1.50;;;5.40;91.10;;;;;;5025338;28;20079;-67
2023/01/23 11:59:26;;;;;;;4.25;2.13;;;5.50;91.10;;;;;;5024777;28;20033;-66
2023/01/23 12:02:11;;;;;;;4.47;1.80;;;5.60;91.00;;;;;;5024996;28;20395;-67
2023/01/23 12:04:45;;;;;;;3.40;2.05;;;5.60;91.00;;;;;;5027540;28;20053;-66
2023/01/23 12:07:20;;;;;;;6.38;2.83;;;5.60;90.90;;;;;;5027467;28;20361;-67
2023/01/23 12:09:58;;;;;;;4.95;2.80;;;5.60;90.90;;;;;;5027583;28;20060;-66
2023/01/23 12:12:49;;;;;;;4.25;2.00;;;5.60;90.90;;;;;;5027667;28;20014;-65
2023/01/23 12:15:27;;;;;;;5.80;2.92;;;5.60;90.80;;;;;;5026125;28;20029;-66
2023/01/23 12:18:20;;;;;;;3.83;2.58;;;5.60;90.80;;;;;;5022700;28;20033;-66
2023/01/23 12:21:10;;;;;;;5.90;2.88;;;5.60;90.80;;;;;;5025712;28;20029;-65
2023/01/23 12:23:44;;;;;;;7.35;3.65;;;5.50;90.70;;;;;;5030993;28;20033;-67
2023/01/23 12:26:18;;;;;;;6.03;2.70;;;5.40;90.70;;;;;;5030651;28;20679;-65
2023/01/23 12:29:21;;;;;;;5.20;2.67;;;5.50;90.90;;;;;;5034013;28;20025;-66
2023/01/23 12:32:05;;;;;;;3.70;2.10;;;5.60;90.90;;;;;;5028639;28;20551;-66
2023/01/23 12:35:04;;;;;;;5.47;2.13;;;5.60;90.80;;;;;;5032618;28;20120;-67
2023/01/23 12:37:55;;;;;;;6.78;3.28;;;5.70;90.80;;;;;;5029828;28;20028;-66
2023/01/23 12:40:39;;;;;;;4.22;2.00;;;5.70;90.50;;;;;;5029215;28;20045;-67
2023/01/23 12:43:10;;;;;;;7.78;3.92;;;5.60;90.60;;;;;;5030075;28;20040;-66
2023/01/23 12:45:40;;;;;;;6.75;3.38;;;5.50;90.50;;;;;;5029294;28;20018;-66
2023/01/23 12:48:31;;;;;;;5.80;2.88;;;5.50;90.60;;;;;;5030665;28;20083;-67
2023/01/23 12:51:05;;;;;;;4.47;2.25;;;5.60;91.00;;;;;;5025023;28;20491;-65
2023/01/23 12:53:36;;;;;;;4.90;2.70;;;5.70;90.70;;;;;;5029901;28;20086;-65
2023/01/23 12:56:16;;;;;;;4.13;2.47;;;5.70;90.50;;;;;;5033345;28;20033;-66
2023/01/23 12:59:06;;;;;;;5.28;2.50;;;5.80;90.60;;;;;;5027712;28;20029;-65
2023/01/23 13:01:35;;;;;;;4.18;2.30;;;5.80;90.50;;;;;;5037190;28;20013;-65
2023/01/23 13:04:14;;;;;;;3.65;1.90;;;5.80;90.50;;;;;;5033264;28;20363;-65
2023/01/23 13:06:48;;;;;;;2.65;1.42;;;5.90;90.40;;;;;;5031989;28;20021;-67
2023/01/23 13:09:31;;;;;;;3.67;2.15;;;6.00;90.40;;;;;;5027242;28;20056;-66
2023/01/23 13:12:10;;;;;;;5.30;2.30;;;6.10;90.30;;;;;;5029148;28;20067;-66
2023/01/23 13:14:45;;;;;;;5.05;2.25;;;6.00;90.10;;;;;;5033596;28;20032;-66
2023/01/23 13:17:33;;;;;;;4.28;2.22;;;6.10;90.30;;;;;;5025588;28;20712;-66